createdAt,value
2023-04-21T00:00:27.532Z,1011.31
2023-04-21T00:00:56.449Z,1011.31
2023-04-21T00:01:31.408Z,1011.31
2023-04-21T00:01:59.163Z,1011.31
2023-04-21T00:02:29.804Z,1011.31
2023-04-21T00:03:00.415Z,1011.31
2023-04-21T00:03:31.986Z,1011.24
2023-04-21T00:04:02.301Z,1011.24
2023-04-21T00:04:34.256Z,1011.31
2023-04-21T00:05:04.731Z,1011.41
2023-04-21T00:05:36.798Z,1011.41
2023-04-21T00:06:06.148Z,1011.31
2023-04-21T00:06:37.853Z,1011.31
2023-04-21T00:07:09.091Z,1011.41
2023-04-21T00:07:39.865Z,1011.41
2023-04-21T00:08:10.552Z,1011.51
2023-04-21T00:08:41.821Z,1011.51
2023-04-21T00:09:12.094Z,1011.41
2023-04-21T00:09:43.867Z,1011.41
2023-04-21T00:10:14.803Z,1011.31
2023-04-21T00:10:45.783Z,1011.31
2023-04-21T00:11:16.079Z,1011.31
2023-04-21T00:11:48.180Z,1011.31
2023-04-21T00:12:19.125Z,1011.51
2023-04-21T00:12:49.163Z,1011.51
2023-04-21T00:13:20.849Z,1011.51
2023-04-21T00:13:51.168Z,1011.51
2023-04-21T00:14:22.866Z,1011.41
2023-04-21T00:14:53.588Z,1011.41
2023-04-21T00:15:25.682Z,1011.24
2023-04-21T00:15:55.227Z,1011.24
2023-04-21T00:16:26.896Z,1011.41
2023-04-21T00:16:57.130Z,1011.41
2023-04-21T00:17:30.005Z,1011.14
2023-04-21T00:17:59.151Z,1011.14
2023-04-21T00:18:31.037Z,1011.31
2023-04-21T00:19:01.540Z,1011.31
2023-04-21T00:19:32.944Z,1011.04
2023-04-21T00:20:03.927Z,1011.31
2023-04-21T00:20:36.979Z,1011.31
2023-04-21T00:21:05.121Z,1011.51
2023-04-21T00:21:37.141Z,1011.51
2023-04-21T00:22:07.451Z,1011.41
2023-04-21T00:22:39.869Z,1011.41
2023-04-21T00:23:09.134Z,1011.24
2023-04-21T00:23:40.909Z,1011.24
2023-04-21T00:24:11.188Z,1011.31
2023-04-21T00:24:42.776Z,1011.31
2023-04-21T00:25:14.006Z,1011.24
2023-04-21T00:25:44.908Z,1011.24
2023-04-21T00:26:15.207Z,1011.41
2023-04-21T00:26:46.895Z,1011.41
2023-04-21T00:27:17.092Z,1011.24
2023-04-21T00:27:49.834Z,1011.24
2023-04-21T00:28:19.599Z,1011.31
2023-04-21T00:28:50.921Z,1011.31
2023-04-21T00:29:21.312Z,1011.31
2023-04-21T00:29:52.824Z,1011.31
2023-04-21T00:30:24.055Z,1011.31
2023-04-21T00:30:54.895Z,1011.31
2023-04-21T00:31:25.433Z,1011.24
2023-04-21T00:31:56.841Z,1011.24
2023-04-21T00:32:29.751Z,1011.31
2023-04-21T00:32:59.938Z,1011.31
2023-04-21T00:33:29.106Z,1011.24
2023-04-21T00:34:01.178Z,1011.24
2023-04-21T00:34:31.268Z,1011.24
2023-04-21T00:35:03.745Z,1011.24
2023-04-21T00:35:33.123Z,1011.14
2023-04-21T00:36:04.899Z,1011.24
2023-04-21T00:36:35.209Z,1011.24
2023-04-21T00:37:06.769Z,1011.24
2023-04-21T00:37:37.160Z,1011.24
2023-04-21T00:38:09.795Z,1011.14
2023-04-21T00:38:39.077Z,1011.14
2023-04-21T00:39:11.023Z,1011.31
2023-04-21T00:39:41.085Z,1011.31
2023-04-21T00:40:13.376Z,1011.31
2023-04-21T00:40:43.110Z,1011.31
2023-04-21T00:41:14.779Z,1011.31
2023-04-21T00:41:45.617Z,1011.31
2023-04-21T00:42:16.822Z,1011.31
2023-04-21T00:42:47.405Z,1011.31
2023-04-21T00:43:19.817Z,1011.31
2023-04-21T00:43:49.135Z,1011.31
2023-04-21T00:44:20.785Z,1011.24
2023-04-21T00:44:51.048Z,1011.24
2023-04-21T00:45:24.018Z,1011.14
2023-04-21T00:45:53.152Z,1011.14
2023-04-21T00:46:24.889Z,1011.14
2023-04-21T00:46:55.481Z,1011.14
2023-04-21T00:47:26.826Z,1011.24
2023-04-21T00:47:57.688Z,1011.24
2023-04-21T00:48:29.717Z,1011.31
2023-04-21T00:48:59.046Z,1011.31
2023-04-21T00:49:30.814Z,1011.14
2023-04-21T00:50:02.535Z,1011.14
2023-04-21T00:50:32.736Z,1011.14
2023-04-21T00:51:03.175Z,1011.24
2023-04-21T00:51:34.758Z,1011.24
2023-04-21T00:52:05.035Z,1011.14
2023-04-21T00:52:36.766Z,1011.14
2023-04-21T00:53:07.353Z,1011.24
2023-04-21T00:53:39.793Z,1011.24
2023-04-21T00:54:09.028Z,1011.14
2023-04-21T00:54:40.951Z,1011.14
2023-04-21T00:55:12.203Z,1011.14
2023-04-21T00:55:42.851Z,1011.14
2023-04-21T00:56:13.056Z,1011.04
2023-04-21T00:56:44.763Z,1011.04
2023-04-21T00:57:15.062Z,1011.14
2023-04-21T00:57:46.835Z,1011.14
2023-04-21T00:58:17.072Z,1011.24
2023-04-21T00:58:49.741Z,1011.24
2023-04-21T00:59:19.468Z,1011.04
2023-04-21T00:59:50.751Z,1011.04
2023-04-21T01:00:22.445Z,1011.41
2023-04-21T01:00:53.140Z,1011.41
2023-04-21T01:01:23.182Z,1011.14
2023-04-21T01:01:55.337Z,1011.14
2023-04-21T01:02:25.214Z,1011.14
2023-04-21T01:02:56.985Z,1011.14
2023-04-21T01:03:27.423Z,1011.14
2023-04-21T01:03:59.896Z,1011.14
2023-04-21T01:04:29.084Z,1011.14
2023-04-21T01:05:02.258Z,1011.14
2023-04-21T01:05:31.079Z,1011.14
2023-04-21T01:06:02.769Z,1011.14
2023-04-21T01:06:33.127Z,1011.31
2023-04-21T01:07:04.906Z,1011.14
2023-04-21T01:07:35.544Z,1011.14
2023-04-21T01:08:06.891Z,1011.14
2023-04-21T01:08:37.088Z,1011.14
2023-04-21T01:09:09.709Z,1011.04
2023-04-21T01:09:39.020Z,1011.04
2023-04-21T01:10:11.269Z,1011.24
2023-04-21T01:10:41.108Z,1011.24
2023-04-21T01:11:12.736Z,1011.14
2023-04-21T01:11:43.028Z,1011.14
2023-04-21T01:12:14.033Z,1011.24
2023-04-21T01:12:45.230Z,1011.24
2023-04-21T01:13:16.766Z,1011.04
2023-04-21T01:13:47.339Z,1011.04
2023-04-21T01:14:19.820Z,1011.24
2023-04-21T01:14:49.062Z,1011.24
2023-04-21T01:15:22.162Z,1011.14
2023-04-21T01:15:51.098Z,1011.14
2023-04-21T01:16:22.787Z,1010.84
2023-04-21T01:16:53.155Z,1010.84
2023-04-21T01:17:24.739Z,1011.24
2023-04-21T01:17:55.240Z,1011.24
2023-04-21T01:18:26.745Z,1011.14
2023-04-21T01:18:57.036Z,1011.14
2023-04-21T01:19:29.722Z,1010.94
2023-04-21T01:19:59.027Z,1010.94
2023-04-21T01:20:37.327Z,1011.14
2023-04-21T01:21:01.115Z,1011.14
2023-04-21T01:21:32.749Z,1011.04
2023-04-21T01:22:03.461Z,1011.04
2023-04-21T01:22:35.368Z,1011.04
2023-04-21T01:23:05.038Z,1011.24
2023-04-21T01:23:36.808Z,1011.24
2023-04-21T01:24:07.393Z,1011.04
2023-04-21T01:24:40.251Z,1011.04
2023-04-21T01:25:09.516Z,1011.04
2023-04-21T01:25:40.819Z,1011.04
2023-04-21T01:26:11.238Z,1011.14
2023-04-21T01:26:42.981Z,1011.14
2023-04-21T01:27:13.071Z,1011.31
2023-04-21T01:27:45.621Z,1011.31
2023-04-21T01:28:15.033Z,1011.14
2023-04-21T01:28:47.302Z,1011.14
2023-04-21T01:29:17.415Z,1011.04
2023-04-21T01:29:49.767Z,1011.04
2023-04-21T01:30:20.220Z,1011.14
2023-04-21T01:30:50.779Z,1011.14
2023-04-21T01:31:21.094Z,1011.14
2023-04-21T01:31:52.831Z,1011.14
2023-04-21T01:32:23.233Z,1011.41
2023-04-21T01:32:55.113Z,1011.41
2023-04-21T01:33:25.059Z,1011.14
2023-04-21T01:33:56.750Z,1011.14
2023-04-21T01:34:27.333Z,1011.14
2023-04-21T01:34:59.734Z,1011.14
2023-04-21T01:35:29.973Z,1011.14
2023-04-21T01:36:00.862Z,1011.14
2023-04-21T01:36:31.154Z,1011.31
2023-04-21T01:37:02.752Z,1011.31
2023-04-21T01:37:33.024Z,1011.04
2023-04-21T01:38:04.794Z,1011.24
2023-04-21T01:38:35.020Z,1011.24
2023-04-21T01:39:06.798Z,1011.04
2023-04-21T01:39:37.261Z,1011.04
2023-04-21T01:40:10.171Z,1011.14
2023-04-21T01:40:39.312Z,1011.14
2023-04-21T01:41:10.745Z,1011.24
2023-04-21T01:41:41.023Z,1011.24
2023-04-21T01:42:13.149Z,1011.31
2023-04-21T01:42:43.116Z,1011.31
2023-04-21T01:43:14.758Z,1011.31
2023-04-21T01:43:45.330Z,1011.31
2023-04-21T01:44:16.724Z,1011.41
2023-04-21T01:44:47.331Z,1011.41
2023-04-21T01:45:20.636Z,1011.04
2023-04-21T01:45:49.197Z,1011.04
2023-04-21T01:46:20.778Z,1011.31
2023-04-21T01:46:51.036Z,1011.31
2023-04-21T01:47:22.753Z,1011.24
2023-04-21T01:47:53.185Z,1011.24
2023-04-21T01:48:24.758Z,1011.24
2023-04-21T01:48:55.033Z,1011.24
2023-04-21T01:49:26.749Z,1011.14
2023-04-21T01:49:57.047Z,1011.14
2023-04-21T01:50:30.242Z,1011.04
2023-04-21T01:50:59.015Z,1011.04
2023-04-21T01:51:30.795Z,1011.14
2023-04-21T01:52:01.991Z,1011.14
2023-04-21T01:52:32.824Z,1011.14
2023-04-21T01:53:03.356Z,1011.14
2023-04-21T01:53:34.780Z,1011.14
2023-04-21T01:54:05.315Z,1011.14
2023-04-21T01:54:36.853Z,1011.14
2023-04-21T01:55:07.881Z,1011.04
2023-04-21T01:55:39.744Z,1011.04
2023-04-21T01:56:09.053Z,1011.24
2023-04-21T01:56:40.811Z,1011.24
2023-04-21T01:57:11.131Z,1011.31
2023-04-21T01:57:42.725Z,1011.31
2023-04-21T01:58:13.076Z,1011.24
2023-04-21T01:58:44.728Z,1011.24
2023-04-21T01:59:15.012Z,1011.24
2023-04-21T01:59:46.751Z,1011.24
2023-04-21T02:00:19.569Z,1011.14
2023-04-21T02:00:52.517Z,1011.14
2023-04-21T02:01:19.116Z,1011.14
2023-04-21T02:01:51.015Z,1011.14
2023-04-21T02:02:21.382Z,1011.04
2023-04-21T02:02:53.163Z,1011.04
2023-04-21T02:03:23.652Z,1011.04
2023-04-21T02:03:54.976Z,1011.04
2023-04-21T02:04:25.231Z,1011.04
2023-04-21T02:04:56.829Z,1011.04
2023-04-21T02:05:27.865Z,1011.24
2023-04-21T02:05:59.993Z,1011.24
2023-04-21T02:06:29.469Z,1010.94
2023-04-21T02:07:02.076Z,1010.94
2023-04-21T02:07:31.329Z,1011.04
2023-04-21T02:08:02.843Z,1011.04
2023-04-21T02:08:33.055Z,1011.24
2023-04-21T02:09:05.255Z,1011.04
2023-04-21T02:09:35.226Z,1011.04
2023-04-21T02:10:07.480Z,1011.24
2023-04-21T02:10:37.048Z,1011.24
2023-04-21T02:11:09.828Z,1010.94
2023-04-21T02:11:39.022Z,1010.94
2023-04-21T02:12:10.009Z,1011.04
2023-04-21T02:12:41.038Z,1011.04
2023-04-21T02:13:12.731Z,1010.94
2023-04-21T02:13:43.065Z,1010.94
2023-04-21T02:14:14.722Z,1011.14
2023-04-21T02:14:45.017Z,1011.14
2023-04-21T02:15:17.557Z,1010.94
2023-04-21T02:15:47.981Z,1010.94
2023-04-21T02:16:19.984Z,1011.14
2023-04-21T02:16:49.400Z,1011.14
2023-04-21T02:17:20.734Z,1011.04
2023-04-21T02:17:51.043Z,1011.04
2023-04-21T02:18:22.751Z,1011.04
2023-04-21T02:18:53.070Z,1011.04
2023-04-21T02:19:24.767Z,1011.04
2023-04-21T02:19:55.436Z,1011.04
2023-04-21T02:20:35.738Z,1011.14
2023-04-21T02:20:57.146Z,1011.14
2023-04-21T02:21:29.797Z,1011.14
2023-04-21T02:21:59.031Z,1011.14
2023-04-21T02:22:31.307Z,1010.94
2023-04-21T02:23:01.254Z,1010.94
2023-04-21T02:23:32.770Z,1011.04
2023-04-21T02:24:03.145Z,1011.04
2023-04-21T02:24:34.756Z,1011.04
2023-04-21T02:25:05.947Z,1011.14
2023-04-21T02:25:36.728Z,1011.14
2023-04-21T02:26:07.815Z,1010.94
2023-04-21T02:26:39.756Z,1010.94
2023-04-21T02:27:09.106Z,1011.04
2023-04-21T02:27:40.744Z,1011.04
2023-04-21T02:28:11.046Z,1011.14
2023-04-21T02:28:42.729Z,1011.14
2023-04-21T02:29:13.025Z,1011.04
2023-04-21T02:29:44.752Z,1011.04
2023-04-21T02:30:15.959Z,1011.31
2023-04-21T02:30:46.774Z,1011.31
2023-04-21T02:31:17.108Z,1011.04
2023-04-21T02:32:00.728Z,1011.04
2023-04-21T02:32:25.656Z,1010.94
2023-04-21T02:32:50.769Z,1010.94
2023-04-21T02:33:21.611Z,1011.24
2023-04-21T02:33:52.768Z,1011.24
2023-04-21T02:34:23.038Z,1011.14
2023-04-21T02:34:54.765Z,1011.14
2023-04-21T02:35:25.556Z,1011.14
2023-04-21T02:35:57.060Z,1011.14
2023-04-21T02:36:27.317Z,1011.14
2023-04-21T02:36:59.753Z,1011.14
2023-04-21T02:37:29.086Z,1011.04
2023-04-21T02:38:00.814Z,1011.04
2023-04-21T02:38:31.234Z,1011.04
2023-04-21T02:39:02.841Z,1011.04
2023-04-21T02:39:33.059Z,1011.14
2023-04-21T02:40:05.509Z,1011.24
2023-04-21T02:40:36.795Z,1011.24
2023-04-21T02:41:06.730Z,1010.94
2023-04-21T02:41:37.018Z,1010.94
2023-04-21T02:42:09.708Z,1011.04
2023-04-21T02:42:39.027Z,1011.04
2023-04-21T02:43:10.757Z,1010.94
2023-04-21T02:43:41.016Z,1010.94
2023-04-21T02:44:12.783Z,1010.94
2023-04-21T02:44:43.021Z,1010.94
2023-04-21T02:45:16.028Z,1011.14
2023-04-21T02:45:45.152Z,1011.14
2023-04-21T02:46:16.799Z,1011.04
2023-04-21T02:46:47.675Z,1011.04
2023-04-21T02:47:19.724Z,1011.04
2023-04-21T02:47:49.211Z,1011.04
2023-04-21T02:48:20.709Z,1011.04
2023-04-21T02:48:51.054Z,1011.04
2023-04-21T02:49:23.032Z,1010.84
2023-04-21T02:49:53.014Z,1010.84
2023-04-21T02:50:25.245Z,1010.94
2023-04-21T02:50:55.032Z,1010.94
2023-04-21T02:51:26.711Z,1011.14
2023-04-21T02:51:57.242Z,1011.14
2023-04-21T02:52:29.751Z,1010.94
2023-04-21T02:52:59.167Z,1010.94
2023-04-21T02:53:30.718Z,1010.94
2023-04-21T02:54:01.280Z,1010.94
2023-04-21T02:54:32.750Z,1010.84
2023-04-21T02:55:03.785Z,1010.94
2023-04-21T02:55:35.173Z,1010.94
2023-04-21T02:56:05.037Z,1011.04
2023-04-21T02:56:36.710Z,1011.04
2023-04-21T02:57:07.323Z,1010.84
2023-04-21T02:57:39.722Z,1010.84
2023-04-21T02:58:09.038Z,1010.94
2023-04-21T02:58:40.820Z,1010.94
2023-04-21T02:59:11.018Z,1010.94
2023-04-21T02:59:42.732Z,1010.94
2023-04-21T03:00:15.115Z,1010.94
2023-04-21T03:00:47.143Z,1010.94
2023-04-21T03:01:15.253Z,1011.14
2023-04-21T03:01:46.803Z,1011.14
2023-04-21T03:02:17.084Z,1011.04
2023-04-21T03:02:50.074Z,1011.04
2023-04-21T03:03:19.550Z,1010.94
2023-04-21T03:03:50.958Z,1010.94
2023-04-21T03:04:21.183Z,1011.04
2023-04-21T03:04:52.824Z,1011.04
2023-04-21T03:05:23.870Z,1010.94
2023-04-21T03:05:54.765Z,1010.94
2023-04-21T03:06:25.095Z,1011.04
2023-04-21T03:06:56.773Z,1011.04
2023-04-21T03:07:27.440Z,1010.84
2023-04-21T03:07:59.788Z,1010.84
2023-04-21T03:08:29.077Z,1010.84
2023-04-21T03:09:01.108Z,1010.84
2023-04-21T03:09:31.318Z,1010.94
2023-04-21T03:10:04.543Z,1010.94
2023-04-21T03:10:33.073Z,1010.94
2023-04-21T03:11:04.911Z,1011.04
2023-04-21T03:11:35.061Z,1011.04
2023-04-21T03:12:06.237Z,1011.14
2023-04-21T03:12:37.023Z,1011.14
2023-04-21T03:13:09.862Z,1011.04
2023-04-21T03:13:39.592Z,1011.04
2023-04-21T03:14:10.729Z,1010.94
2023-04-21T03:14:41.094Z,1010.94
2023-04-21T03:15:14.244Z,1011.04
2023-04-21T03:15:43.110Z,1011.04
2023-04-21T03:16:15.154Z,1011.04
2023-04-21T03:16:45.823Z,1011.04
2023-04-21T03:17:16.733Z,1010.94
2023-04-21T03:17:47.404Z,1010.94
2023-04-21T03:18:19.798Z,1010.94
2023-04-21T03:18:49.232Z,1010.94
2023-04-21T03:19:21.529Z,1011.04
2023-04-21T03:19:51.107Z,1011.04
2023-04-21T03:20:23.333Z,1011.04
2023-04-21T03:20:53.066Z,1011.04
2023-04-21T03:21:24.803Z,1011.31
2023-04-21T03:21:55.124Z,1011.31
2023-04-21T03:22:26.766Z,1010.94
2023-04-21T03:22:57.382Z,1010.94
2023-04-21T03:23:29.723Z,1011.14
2023-04-21T03:23:59.074Z,1011.14
2023-04-21T03:24:30.774Z,1010.94
2023-04-21T03:25:02.556Z,1010.94
2023-04-21T03:25:32.764Z,1010.94
2023-04-21T03:26:03.248Z,1010.73
2023-04-21T03:26:34.915Z,1010.73
2023-04-21T03:27:05.554Z,1010.94
2023-04-21T03:27:36.796Z,1010.94
2023-04-21T03:28:07.647Z,1011.14
2023-04-21T03:28:39.734Z,1011.14
2023-04-21T03:29:09.000Z,1010.84
2023-04-21T03:29:41.163Z,1010.84
2023-04-21T03:30:11.789Z,1010.73
2023-04-21T03:30:42.836Z,1010.73
2023-04-21T03:31:13.115Z,1011.14
2023-04-21T03:31:44.787Z,1011.14
2023-04-21T03:32:15.066Z,1010.94
2023-04-21T03:32:46.796Z,1010.94
2023-04-21T03:33:17.036Z,1011.24
2023-04-21T03:33:49.721Z,1011.24
2023-04-21T03:34:19.049Z,1011.04
2023-04-21T03:34:50.726Z,1011.04
2023-04-21T03:35:21.528Z,1011.14
2023-04-21T03:35:52.725Z,1011.14
2023-04-21T03:36:23.079Z,1011.04
2023-04-21T03:36:54.773Z,1011.04
2023-04-21T03:37:25.031Z,1010.73
2023-04-21T03:37:56.755Z,1010.73
2023-04-21T03:38:27.310Z,1010.84
2023-04-21T03:39:09.155Z,1010.84
2023-04-21T03:39:29.087Z,1011.04
2023-04-21T03:40:01.082Z,1011.04
2023-04-21T03:40:38.080Z,1011.04
2023-04-21T03:41:02.718Z,1011.04
2023-04-21T03:41:33.071Z,1010.94
2023-04-21T03:42:04.700Z,1010.94
2023-04-21T03:42:35.010Z,1010.94
2023-04-21T03:43:07.104Z,1010.94
2023-04-21T03:43:37.038Z,1010.94
2023-04-21T03:44:09.755Z,1010.94
2023-04-21T03:44:39.034Z,1010.94
2023-04-21T03:45:11.622Z,1010.94
2023-04-21T03:45:41.237Z,1010.94
2023-04-21T03:46:12.784Z,1010.94
2023-04-21T03:46:43.107Z,1010.94
2023-04-21T03:47:14.709Z,1011.14
2023-04-21T03:47:45.063Z,1011.14
2023-04-21T03:48:16.745Z,1011.04
2023-04-21T03:48:47.338Z,1011.04
2023-04-21T03:49:19.960Z,1010.84
2023-04-21T03:49:49.204Z,1010.84
2023-04-21T03:50:21.165Z,1010.94
2023-04-21T03:50:51.040Z,1010.94
2023-04-21T03:51:22.800Z,1010.94
2023-04-21T03:51:53.035Z,1010.94
2023-04-21T03:52:24.702Z,1011.04
2023-04-21T03:52:55.085Z,1011.04
2023-04-21T03:53:26.721Z,1010.94
2023-04-21T03:53:57.553Z,1010.94
2023-04-21T03:54:29.693Z,1010.73
2023-04-21T03:54:58.971Z,1010.73
2023-04-21T03:55:31.330Z,1011.04
2023-04-21T03:56:01.471Z,1011.04
2023-04-21T03:56:33.222Z,1011.14
2023-04-21T03:57:03.173Z,1010.84
2023-04-21T03:57:34.811Z,1010.84
2023-04-21T03:58:05.025Z,1011.04
2023-04-21T03:58:36.749Z,1011.04
2023-04-21T03:59:07.304Z,1010.94
2023-04-21T03:59:39.812Z,1010.94
2023-04-21T04:00:10.673Z,1011.14
2023-04-21T04:00:48.899Z,1011.14
2023-04-21T04:01:11.003Z,1011.04
2023-04-21T04:01:42.746Z,1011.04
2023-04-21T04:02:13.188Z,1010.94
2023-04-21T04:02:44.838Z,1010.94
2023-04-21T04:03:15.414Z,1010.94
2023-04-21T04:03:46.913Z,1010.94
2023-04-21T04:04:17.356Z,1011.04
2023-04-21T04:04:50.000Z,1011.04
2023-04-21T04:05:19.846Z,1011.04
2023-04-21T04:05:50.869Z,1011.04
2023-04-21T04:06:21.189Z,1010.84
2023-04-21T04:06:52.885Z,1010.84
2023-04-21T04:07:23.534Z,1011.04
2023-04-21T04:07:54.893Z,1011.04
2023-04-21T04:08:25.187Z,1010.84
2023-04-21T04:08:56.875Z,1010.84
2023-04-21T04:09:27.417Z,1011.04
2023-04-21T04:09:59.835Z,1011.04
2023-04-21T04:10:29.688Z,1011.14
2023-04-21T04:11:00.830Z,1011.14
2023-04-21T04:11:31.347Z,1011.04
2023-04-21T04:12:02.884Z,1011.04
2023-04-21T04:12:33.223Z,1011.04
2023-04-21T04:13:04.201Z,1010.84
2023-04-21T04:13:35.880Z,1010.84
2023-04-21T04:14:06.372Z,1010.94
2023-04-21T04:14:37.964Z,1010.94
2023-04-21T04:15:10.284Z,1010.84
2023-04-21T04:15:40.048Z,1010.84
2023-04-21T04:16:10.238Z,1011.04
2023-04-21T04:16:42.414Z,1011.04
2023-04-21T04:17:12.200Z,1011.04
2023-04-21T04:17:43.951Z,1011.04
2023-04-21T04:18:14.148Z,1011.04
2023-04-21T04:18:45.790Z,1011.04
2023-04-21T04:19:16.222Z,1011.14
2023-04-21T04:19:48.161Z,1011.14
2023-04-21T04:20:19.644Z,1011.14
2023-04-21T04:20:50.178Z,1011.14
2023-04-21T04:21:20.188Z,1011.24
2023-04-21T04:21:51.839Z,1011.24
2023-04-21T04:22:22.172Z,1011.24
2023-04-21T04:22:53.836Z,1011.24
2023-04-21T04:23:24.198Z,1010.94
2023-04-21T04:23:55.869Z,1010.94
2023-04-21T04:24:26.120Z,1010.94
2023-04-21T04:24:57.818Z,1010.94
2023-04-21T04:25:29.878Z,1011.04
2023-04-21T04:25:59.886Z,1011.04
2023-04-21T04:26:30.164Z,1011.31
2023-04-21T04:27:02.194Z,1011.31
2023-04-21T04:27:32.503Z,1011.04
2023-04-21T04:28:03.890Z,1011.04
2023-04-21T04:28:34.555Z,1011.04
2023-04-21T04:29:05.891Z,1011.04
2023-04-21T04:29:36.148Z,1011.04
2023-04-21T04:30:09.848Z,1010.94
2023-04-21T04:30:39.231Z,1010.94
2023-04-21T04:31:09.861Z,1011.04
2023-04-21T04:31:40.377Z,1011.04
2023-04-21T04:32:11.931Z,1011.04
2023-04-21T04:32:42.250Z,1011.04
2023-04-21T04:33:13.912Z,1010.94
2023-04-21T04:33:44.166Z,1010.94
2023-04-21T04:34:15.905Z,1011.04
2023-04-21T04:34:46.149Z,1011.04
2023-04-21T04:35:18.357Z,1011.04
2023-04-21T04:35:49.159Z,1011.04
2023-04-21T04:36:19.900Z,1011.14
2023-04-21T04:36:50.210Z,1011.14
2023-04-21T04:37:22.091Z,1011.04
2023-04-21T04:37:52.175Z,1011.04
2023-04-21T04:38:23.819Z,1010.84
2023-04-21T04:38:54.182Z,1010.84
2023-04-21T04:39:25.812Z,1011.04
2023-04-21T04:39:56.143Z,1011.04
2023-04-21T04:40:37.121Z,1010.94
2023-04-21T04:40:59.147Z,1010.94
2023-04-21T04:41:29.867Z,1011.04
2023-04-21T04:42:00.238Z,1011.04
2023-04-21T04:42:32.089Z,1011.14
2023-04-21T04:43:02.272Z,1011.14
2023-04-21T04:43:34.421Z,1010.94
2023-04-21T04:44:04.438Z,1011.14
2023-04-21T04:44:35.898Z,1011.14
2023-04-21T04:45:07.358Z,1011.04
2023-04-21T04:45:37.969Z,1011.04
2023-04-21T04:46:09.302Z,1010.84
2023-04-21T04:46:40.021Z,1010.84
2023-04-21T04:47:10.238Z,1011.04
2023-04-21T04:47:41.968Z,1011.04
2023-04-21T04:48:12.152Z,1010.84
2023-04-21T04:48:43.823Z,1010.84
2023-04-21T04:49:14.167Z,1010.94
2023-04-21T04:49:45.891Z,1010.94
2023-04-21T04:50:16.631Z,1011.04
2023-04-21T04:50:48.131Z,1011.04
2023-04-21T04:51:19.708Z,1011.04
2023-04-21T04:51:49.996Z,1011.04
2023-04-21T04:52:20.236Z,1011.04
2023-04-21T04:52:51.956Z,1011.04
2023-04-21T04:53:22.236Z,1011.14
2023-04-21T04:53:53.848Z,1011.14
2023-04-21T04:54:24.568Z,1011.04
2023-04-21T04:54:55.833Z,1011.04
2023-04-21T04:55:26.707Z,1010.94
2023-04-21T04:55:57.885Z,1010.94
2023-04-21T04:56:29.122Z,1011.04
2023-04-21T04:57:00.380Z,1011.04
2023-04-21T04:57:30.202Z,1011.14
2023-04-21T04:58:01.994Z,1011.14
2023-04-21T04:58:32.346Z,1011.14
2023-04-21T04:59:03.965Z,1010.94
2023-04-21T04:59:34.377Z,1010.94
2023-04-21T05:00:07.423Z,1011.14
2023-04-21T05:00:47.335Z,1011.14
2023-04-21T05:01:08.285Z,1010.84
2023-04-21T05:01:39.180Z,1010.84
2023-04-21T05:02:09.890Z,1011.04
2023-04-21T05:02:40.641Z,1011.04
2023-04-21T05:03:12.003Z,1011.24
2023-04-21T05:03:42.418Z,1011.24
2023-04-21T05:04:14.037Z,1011.04
2023-04-21T05:04:44.293Z,1011.04
2023-04-21T05:05:16.480Z,1011.31
2023-04-21T05:05:46.122Z,1011.31
2023-04-21T05:06:17.991Z,1011.14
2023-04-21T05:06:49.211Z,1011.14
2023-04-21T05:07:19.901Z,1011.14
2023-04-21T05:07:50.617Z,1011.14
2023-04-21T05:08:21.862Z,1011.14
2023-04-21T05:08:52.256Z,1011.14
2023-04-21T05:09:23.829Z,1011.14
2023-04-21T05:09:54.160Z,1011.14
2023-04-21T05:10:26.963Z,1011.24
2023-04-21T05:10:56.151Z,1011.24
2023-04-21T05:11:28.089Z,1011.24
2023-04-21T05:11:59.104Z,1011.24
2023-04-21T05:12:29.081Z,1011.31
2023-04-21T05:13:00.235Z,1011.31
2023-04-21T05:13:31.921Z,1011.24
2023-04-21T05:14:02.247Z,1011.24
2023-04-21T05:14:34.056Z,1011.31
2023-04-21T05:15:05.406Z,1011.14
2023-04-21T05:15:35.990Z,1011.14
2023-04-21T05:16:06.428Z,1011.31
2023-04-21T05:16:37.891Z,1011.31
2023-04-21T05:17:09.570Z,1011.31
2023-04-21T05:17:39.856Z,1011.31
2023-04-21T05:18:10.460Z,1011.31
2023-04-21T05:18:41.852Z,1011.31
2023-04-21T05:19:12.226Z,1011.31
2023-04-21T05:19:44.287Z,1011.31
2023-04-21T05:20:14.625Z,1011.61
2023-04-21T05:20:48.214Z,1011.61
2023-04-21T05:21:16.629Z,1011.24
2023-04-21T05:21:48.117Z,1011.24
2023-04-21T05:22:19.191Z,1011.31
2023-04-21T05:22:49.810Z,1011.31
2023-04-21T05:23:20.192Z,1011.31
2023-04-21T05:23:51.901Z,1011.31
2023-04-21T05:24:22.300Z,1011.24
2023-04-21T05:24:53.837Z,1011.24
2023-04-21T05:25:24.635Z,1011.31
2023-04-21T05:25:55.863Z,1011.31
2023-04-21T05:26:26.144Z,1011.31
2023-04-21T05:26:57.839Z,1011.31
2023-04-21T05:27:29.144Z,1011.51
2023-04-21T05:28:00.107Z,1011.51
2023-04-21T05:28:30.110Z,1011.41
2023-04-21T05:29:01.904Z,1011.41
2023-04-21T05:29:32.190Z,1011.41
2023-04-21T05:30:04.913Z,1011.61
2023-04-21T05:30:34.740Z,1011.61
2023-04-21T05:31:05.934Z,1011.51
2023-04-21T05:31:36.236Z,1011.51
2023-04-21T05:32:08.359Z,1011.31
2023-04-21T05:32:39.262Z,1011.31
2023-04-21T05:33:09.869Z,1011.41
2023-04-21T05:33:40.284Z,1011.41
2023-04-21T05:34:11.844Z,1011.51
2023-04-21T05:34:42.712Z,1011.51
2023-04-21T05:35:14.377Z,1011.41
2023-04-21T05:35:44.162Z,1011.41
2023-04-21T05:36:15.905Z,1011.31
2023-04-21T05:36:46.270Z,1011.31
2023-04-21T05:37:17.910Z,1011.51
2023-04-21T05:37:49.260Z,1011.51
2023-04-21T05:38:19.882Z,1011.61
2023-04-21T05:38:50.344Z,1011.61
2023-04-21T05:39:22.517Z,1011.51
2023-04-21T05:39:52.224Z,1011.51
2023-04-21T05:40:24.346Z,1011.41
2023-04-21T05:40:54.203Z,1011.41
2023-04-21T05:41:26.098Z,1011.82
2023-04-21T05:41:56.159Z,1011.82
2023-04-21T05:42:28.126Z,1011.41
2023-04-21T05:42:59.119Z,1011.41
2023-04-21T05:43:29.802Z,1011.61
2023-04-21T05:44:00.233Z,1011.61
2023-04-21T05:44:32.087Z,1011.41
2023-04-21T05:45:03.763Z,1011.41
2023-04-21T05:45:33.957Z,1011.61
2023-04-21T05:46:04.192Z,1011.51
2023-04-21T05:46:35.997Z,1011.51
2023-04-21T05:47:06.210Z,1011.41
2023-04-21T05:47:37.954Z,1011.41
2023-04-21T05:48:10.413Z,1011.51
2023-04-21T05:48:39.842Z,1011.51
2023-04-21T05:49:10.165Z,1011.41
2023-04-21T05:49:42.037Z,1011.41
2023-04-21T05:50:12.829Z,1011.51
2023-04-21T05:50:43.865Z,1011.51
2023-04-21T05:51:14.193Z,1011.31
2023-04-21T05:51:45.908Z,1011.31
2023-04-21T05:52:16.306Z,1011.41
2023-04-21T05:52:48.197Z,1011.41
2023-04-21T05:53:19.264Z,1011.61
2023-04-21T05:53:49.894Z,1011.61
2023-04-21T05:54:20.335Z,1011.61
2023-04-21T05:54:52.454Z,1011.61
2023-04-21T05:55:22.731Z,1011.72
2023-04-21T05:55:53.867Z,1011.72
2023-04-21T05:56:24.210Z,1011.51
2023-04-21T05:56:55.831Z,1011.51
2023-04-21T05:57:26.127Z,1011.51
2023-04-21T05:57:57.805Z,1011.51
2023-04-21T05:58:29.211Z,1011.31
2023-04-21T05:58:59.823Z,1011.31
2023-04-21T05:59:30.238Z,1011.41
2023-04-21T06:00:04.416Z,1011.41
2023-04-21T06:00:32.848Z,1011.31
2023-04-21T06:01:04.135Z,1011.41
2023-04-21T06:01:34.900Z,1011.41
2023-04-21T06:02:06.093Z,1011.41
2023-04-21T06:02:36.476Z,1011.41
2023-04-21T06:03:08.448Z,1011.41
2023-04-21T06:03:39.511Z,1011.41
2023-04-21T06:04:10.118Z,1011.51
2023-04-21T06:04:40.557Z,1011.51
2023-04-21T06:05:12.595Z,1011.61
2023-04-21T06:05:42.622Z,1011.61
2023-04-21T06:06:14.023Z,1011.41
2023-04-21T06:06:44.403Z,1011.41
2023-04-21T06:07:17.543Z,1011.51
2023-04-21T06:07:46.383Z,1011.51
2023-04-21T06:08:18.691Z,1011.41
2023-04-21T06:08:49.457Z,1011.41
2023-04-21T06:09:20.133Z,1011.31
2023-04-21T06:09:50.272Z,1011.31
2023-04-21T06:10:22.489Z,1011.51
2023-04-21T06:10:52.725Z,1011.51
2023-04-21T06:11:24.198Z,1011.72
2023-04-21T06:11:54.347Z,1011.72
2023-04-21T06:12:25.800Z,1011.41
2023-04-21T06:12:56.288Z,1011.41
2023-04-21T06:13:28.596Z,1011.61
2023-04-21T06:13:59.323Z,1011.61
2023-04-21T06:14:30.051Z,1011.61
2023-04-21T06:15:01.790Z,1011.61